Time;durP1;ratioP1;P1;durP2;ratioP2;P2;SDS_P1;SDS_P2;PMS_P1;PMS_P2;Temp;Humidity;BMP_temperature;BMP_pressure;BME280_temperature;BME280_humidity;BME280_pressure;Samples;Min_cycle;Max_cycle;Signal;HPM_P1;HPM_P2
2022/02/15 00:01:37;;;;;;;;;4.00;2.00;;;;;;;;5075138;27;45571;-68
2022/02/15 00:04:02;;;;;;;;;2.75;2.75;;;;;;;;5074120;28;45433;-68
2022/02/15 00:06:27;;;;;;;;;3.50;2.75;;;;;;;;5084813;27;45684;-68
2022/02/15 00:08:52;;;;;;;;;2.75;2.75;;;;;;;;5075095;27;45458;-69
2022/02/15 00:11:18;;;;;;;;;3.00;3.00;;;;;;;;5074413;28;45554;-68
2022/02/15 00:13:43;;;;;;;;;3.50;3.50;;;;;;;;5074201;27;47320;-68
2022/02/15 00:16:10;;;;;;;;;2.00;2.00;;;;;;;;5073941;28;45548;-68
2022/02/15 00:18:35;;;;;;;;;1.50;1.50;;;;;;;;5074159;28;45279;-69
2022/02/15 00:21:01;;;;;;;;;4.00;2.50;;;;;;;;5076385;27;45478;-69
2022/02/15 00:23:27;;;;;;;;;1.25;1.25;;;;;;;;5075716;27;47461;-68
2022/02/15 00:25:52;;;;;;;;;2.50;1.75;;;;;;;;5074051;27;45233;-68
2022/02/15 00:28:17;;;;;;;;;2.50;2.50;;;;;;;;5083146;27;45450;-68
2022/02/15 00:30:42;;;;;;;;;4.00;3.00;;;;;;;;5085612;27;45354;-68
2022/02/15 00:33:07;;;;;;;;;2.50;2.00;;;;;;;;5074765;28;46463;-68
2022/02/15 00:35:33;;;;;;;;;2.00;2.00;;;;;;;;5074005;28;45390;-68
2022/02/15 00:37:58;;;;;;;;;2.00;2.00;;;;;;;;5077378;28;45294;-68
2022/02/15 00:40:23;;;;;;;;;2.50;2.50;;;;;;;;5077875;28;45271;-69
2022/02/15 00:42:48;;;;;;;;;1.75;1.75;;;;;;;;5077149;28;46255;-69
2022/02/15 00:45:13;;;;;;;;;5.75;3.00;;;;;;;;5086465;27;45280;-69
2022/02/15 00:47:39;;;;;;;;;3.25;1.25;;;;;;;;5077741;27;45297;-68
2022/02/15 00:50:05;;;;;;;;;2.75;1.25;;;;;;;;5077671;28;45567;-69
2022/02/15 00:52:30;;;;;;;;;2.00;2.00;;;;;;;;5077154;27;46521;-68
2022/02/15 00:54:56;;;;;;;;;3.00;2.00;;;;;;;;5077416;28;45439;-68
2022/02/15 00:57:22;;;;;;;;;3.75;2.75;;;;;;;;5077990;28;45313;-68
2022/02/15 00:59:47;;;;;;;;;3.00;1.00;;;;;;;;5076903;28;45449;-68
2022/02/15 01:02:12;;;;;;;;;1.00;1.00;;;;;;;;5079786;27;46120;-69
2022/02/15 01:04:38;;;;;;;;;2.00;2.00;;;;;;;;5077140;28;45367;-68
2022/02/15 01:07:03;;;;;;;;;5.00;2.75;;;;;;;;5077570;28;45292;-68
2022/02/15 01:09:28;;;;;;;;;2.00;2.00;;;;;;;;5080184;27;45351;-69
2022/02/15 01:11:54;;;;;;;;;2.75;2.00;;;;;;;;5077498;27;45449;-68
2022/02/15 01:14:20;;;;;;;;;2.00;2.00;;;;;;;;5076651;28;45391;-68
2022/02/15 01:16:45;;;;;;;;;4.00;2.00;;;;;;;;5076371;28;45406;-69
2022/02/15 01:19:10;;;;;;;;;3.25;2.50;;;;;;;;5076954;27;45402;-68
2022/02/15 01:21:36;;;;;;;;;2.75;2.75;;;;;;;;5076326;28;45987;-69
2022/02/15 01:24:01;;;;;;;;;2.25;1.00;;;;;;;;5076539;28;45387;-68
2022/02/15 01:26:26;;;;;;;;;1.00;1.00;;;;;;;;5076163;27;45581;-69
2022/02/15 01:28:51;;;;;;;;;1.25;1.00;;;;;;;;5076681;28;45435;-68
2022/02/15 01:31:17;;;;;;;;;2.00;2.00;;;;;;;;5076745;28;46469;-68
2022/02/15 01:33:42;;;;;;;;;2.25;2.00;;;;;;;;5076476;28;45493;-69
2022/02/15 01:36:07;;;;;;;;;2.00;2.00;;;;;;;;5076251;28;45276;-68
2022/02/15 01:38:32;;;;;;;;;1.75;1.75;;;;;;;;5076709;28;45450;-68
2022/02/15 01:40:58;;;;;;;;;1.50;1.50;;;;;;;;5076177;28;46438;-68
2022/02/15 01:43:23;;;;;;;;;3.00;1.50;;;;;;;;5075187;28;45465;-68
2022/02/15 01:45:48;;;;;;;;;3.00;1.00;;;;;;;;5076337;28;45585;-69
2022/02/15 01:48:13;;;;;;;;;2.25;1.25;;;;;;;;5076727;27;45358;-69
2022/02/15 01:50:39;;;;;;;;;2.25;2.00;;;;;;;;5078919;27;45495;-68
2022/02/15 01:53:04;;;;;;;;;1.00;1.00;;;;;;;;5081500;27;45350;-68
2022/02/15 01:55:29;;;;;;;;;1.00;1.00;;;;;;;;5076381;27;45402;-69
2022/02/15 01:57:54;;;;;;;;;1.00;1.00;;;;;;;;5089857;27;45590;-68
2022/02/15 02:00:20;;;;;;;;;1.00;1.00;;;;;;;;5076351;28;46483;-68
2022/02/15 02:02:46;;;;;;;;;2.00;2.00;;;;;;;;5077053;28;45404;-68
2022/02/15 02:07:56;;;;;;;;;1.75;1.00;;;;;;;;5080003;27;45496;-68
2022/02/15 02:10:21;;;;;;;;;2.75;2.00;;;;;;;;5075839;28;46134;-69
2022/02/15 02:12:47;;;;;;;;;2.00;2.00;;;;;;;;5086276;27;45442;-68
2022/02/15 02:15:19;;;;;;;;;1.00;1.00;;;;;;;;5062845;27;45411;-68
2022/02/15 02:17:45;;;;;;;;;1.00;1.00;;;;;;;;5076382;28;45619;-69
2022/02/15 02:20:11;;;;;;;;;2.50;1.00;;;;;;;;5075874;28;45460;-68
2022/02/15 02:22:36;;;;;;;;;2.00;1.00;;;;;;;;5075662;28;45465;-68
2022/02/15 02:25:01;;;;;;;;;1.00;1.00;;;;;;;;5076222;28;45292;-68
2022/02/15 02:27:27;;;;;;;;;2.75;1.75;;;;;;;;5084341;27;45544;-68
2022/02/15 02:29:54;;;;;;;;;2.00;1.50;;;;;;;;5076453;28;46473;-68
2022/02/15 02:32:29;;;;;;;;;1.25;1.25;;;;;;;;5075512;27;45476;-68
2022/02/15 02:34:55;;;;;;;;;1.25;1.25;;;;;;;;5078583;27;45525;-69
2022/02/15 02:37:20;;;;;;;;;2.00;1.00;;;;;;;;5075244;28;45220;-69
2022/02/15 02:39:48;;;;;;;;;3.50;2.50;;;;;;;;5075458;28;46421;-69
2022/02/15 02:42:14;;;;;;;;;1.75;0.75;;;;;;;;5085606;27;45318;-68
2022/02/15 02:44:39;;;;;;;;;2.00;2.00;;;;;;;;5075241;28;45484;-68
2022/02/15 02:47:05;;;;;;;;;1.00;1.00;;;;;;;;5075161;27;45456;-68
2022/02/15 02:49:31;;;;;;;;;0.25;0.25;;;;;;;;5079667;27;45467;-68
2022/02/15 02:51:56;;;;;;;;;2.25;2.25;;;;;;;;5075846;28;45584;-68
2022/02/15 02:54:23;;;;;;;;;2.00;2.00;;;;;;;;5059849;27;45549;-68
2022/02/15 02:56:48;;;;;;;;;0.50;0.00;;;;;;;;5063405;27;45492;-68
2022/02/15 02:59:13;;;;;;;;;0.75;0.75;;;;;;;;5070978;28;47014;-68
2022/02/15 03:01:39;;;;;;;;;3.75;2.00;;;;;;;;5075127;28;45374;-68
2022/02/15 03:04:04;;;;;;;;;2.00;0.00;;;;;;;;5074956;28;45692;-68
2022/02/15 03:06:30;;;;;;;;;1.50;1.00;;;;;;;;5075138;28;45377;-68
2022/02/15 03:08:55;;;;;;;;;0.75;0.75;;;;;;;;5075796;28;46343;-68
2022/02/15 03:11:20;;;;;;;;;2.25;1.00;;;;;;;;5071101;27;45420;-68
2022/02/15 03:13:45;;;;;;;;;4.00;1.00;;;;;;;;5079387;27;45465;-68
2022/02/15 03:16:10;;;;;;;;;2.25;1.00;;;;;;;;5064645;27;45459;-68
2022/02/15 03:18:36;;;;;;;;;2.75;1.25;;;;;;;;5057843;28;47695;-67
2022/02/15 03:21:01;;;;;;;;;1.25;1.00;;;;;;;;5061694;28;45309;-68
2022/02/15 03:23:26;;;;;;;;;2.00;0.00;;;;;;;;5063954;28;45363;-68
2022/02/15 03:25:51;;;;;;;;;1.00;1.00;;;;;;;;5067043;28;45553;-68
2022/02/15 03:28:16;;;;;;;;;0.75;0.75;;;;;;;;5083061;27;45421;-68
2022/02/15 03:30:42;;;;;;;;;1.50;0.50;;;;;;;;5075270;27;45459;-68
2022/02/15 03:33:07;;;;;;;;;1.25;1.25;;;;;;;;5076161;28;45358;-68
2022/02/15 03:35:32;;;;;;;;;2.00;2.00;;;;;;;;5064737;28;45489;-69
2022/02/15 03:37:57;;;;;;;;;0.00;0.00;;;;;;;;5069205;28;46495;-68
2022/02/15 03:40:23;;;;;;;;;1.00;1.00;;;;;;;;5073619;28;45555;-68
2022/02/15 03:43:06;;;;;;;;;2.00;2.00;;;;;;;;5058219;28;45429;-69
2022/02/15 03:45:31;;;;;;;;;1.50;1.50;;;;;;;;5058950;28;45431;-68
2022/02/15 03:47:57;;;;;;;;;1.00;1.00;;;;;;;;5073874;27;45333;-68
2022/02/15 03:50:22;;;;;;;;;1.75;1.00;;;;;;;;5077079;27;45130;-68
2022/02/15 03:52:47;;;;;;;;;1.00;1.00;;;;;;;;5074412;27;45366;-68
2022/02/15 03:55:12;;;;;;;;;0.25;0.25;;;;;;;;5073913;28;45274;-68
2022/02/15 03:57:38;;;;;;;;;1.00;1.00;;;;;;;;5074473;27;46110;-68
2022/02/15 04:00:06;;;;;;;;;0.00;0.00;;;;;;;;5074983;27;45415;-68
2022/02/15 04:02:32;;;;;;;;;1.00;1.00;;;;;;;;5074393;28;45456;-68
2022/02/15 04:04:57;;;;;;;;;1.00;1.00;;;;;;;;5073908;27;45546;-68
2022/02/15 04:07:22;;;;;;;;;1.00;1.00;;;;;;;;5073440;28;48079;-68
2022/02/15 04:09:47;;;;;;;;;2.00;1.00;;;;;;;;5074223;27;45442;-69
2022/02/15 04:12:12;;;;;;;;;1.00;0.00;;;;;;;;5088539;27;45372;-68
2022/02/15 04:14:38;;;;;;;;;0.00;0.00;;;;;;;;5088484;27;48591;-68
2022/02/15 04:17:04;;;;;;;;;1.00;1.00;;;;;;;;5082752;27;45460;-68
2022/02/15 04:19:29;;;;;;;;;1.00;1.00;;;;;;;;5077781;27;45642;-68
2022/02/15 04:21:54;;;;;;;;;0.25;0.00;;;;;;;;5077766;28;45548;-68
2022/02/15 04:24:20;;;;;;;;;0.50;0.50;;;;;;;;5078132;28;45267;-68
2022/02/15 04:26:45;;;;;;;;;1.75;0.00;;;;;;;;5084713;27;46680;-69
2022/02/15 04:29:10;;;;;;;;;1.00;1.00;;;;;;;;5081827;27;45458;-69
2022/02/15 04:31:35;;;;;;;;;5.25;0.00;;;;;;;;5077705;28;45475;-68
2022/02/15 04:34:00;;;;;;;;;2.00;0.75;;;;;;;;5077551;28;45249;-68
2022/02/15 04:36:26;;;;;;;;;1.00;1.00;;;;;;;;5077322;27;45481;-68
2022/02/15 04:38:51;;;;;;;;;2.00;1.75;;;;;;;;5086173;27;45410;-68
2022/02/15 04:41:16;;;;;;;;;2.00;1.00;;;;;;;;5080428;27;45569;-68
2022/02/15 04:43:42;;;;;;;;;2.00;0.00;;;;;;;;5077167;28;45204;-67
2022/02/15 04:46:07;;;;;;;;;0.25;0.25;;;;;;;;5078742;27;46365;-69
2022/02/15 04:48:32;;;;;;;;;2.00;1.00;;;;;;;;5070038;27;45350;-69
2022/02/15 04:50:58;;;;;;;;;0.00;0.00;;;;;;;;5078365;27;45428;-68
2022/02/15 04:53:23;;;;;;;;;1.00;1.00;;;;;;;;5079507;27;45393;-68
2022/02/15 04:55:48;;;;;;;;;0.00;0.00;;;;;;;;5077060;28;47382;-68
2022/02/15 04:58:13;;;;;;;;;2.00;0.50;;;;;;;;5077216;28;45417;-68
2022/02/15 05:00:40;;;;;;;;;3.00;2.00;;;;;;;;5061030;28;45489;-68
2022/02/15 05:03:05;;;;;;;;;0.75;0.75;;;;;;;;5089267;27;45638;-68
2022/02/15 05:05:31;;;;;;;;;0.00;0.00;;;;;;;;5078469;27;46159;-68
2022/02/15 05:07:56;;;;;;;;;1.25;1.00;;;;;;;;5079690;27;45422;-68
2022/02/15 05:10:21;;;;;;;;;0.75;0.00;;;;;;;;5077115;28;45304;-69
2022/02/15 05:12:47;;;;;;;;;2.00;1.00;;;;;;;;5077080;28;45414;-68
2022/02/15 05:15:12;;;;;;;;;0.50;0.00;;;;;;;;5078712;27;46577;-68
2022/02/15 05:17:43;;;;;;;;;1.00;1.00;;;;;;;;5077230;27;45392;-68
2022/02/15 05:20:09;;;;;;;;;1.33;0.00;;;;;;;;5076715;28;45334;-68
2022/02/15 05:22:34;;;;;;;;;0.00;0.00;;;;;;;;5078240;27;45512;-69
2022/02/15 05:24:59;;;;;;;;;0.75;0.75;;;;;;;;5076560;28;47342;-68
2022/02/15 05:27:24;;;;;;;;;0.75;0.75;;;;;;;;5077524;28;45575;-68
2022/02/15 05:29:50;;;;;;;;;1.00;0.00;;;;;;;;5081263;27;45435;-68
2022/02/15 05:32:15;;;;;;;;;1.00;1.00;;;;;;;;5069250;27;45477;-68
2022/02/15 05:34:42;;;;;;;;;0.00;0.00;;;;;;;;5065526;28;45352;-68
2022/02/15 05:37:07;;;;;;;;;0.75;0.75;;;;;;;;5063156;27;45442;-68
2022/02/15 05:39:33;;;;;;;;;0.00;0.00;;;;;;;;5076796;27;45387;-68
2022/02/15 05:41:58;;;;;;;;;0.25;0.00;;;;;;;;5084966;27;45420;-68
2022/02/15 05:44:23;;;;;;;;;0.00;0.00;;;;;;;;5078913;27;46474;-68
2022/02/15 05:46:48;;;;;;;;;2.00;1.00;;;;;;;;5072080;27;45363;-68
2022/02/15 05:49:13;;;;;;;;;0.00;0.00;;;;;;;;5069413;28;46175;-67
2022/02/15 05:51:39;;;;;;;;;0.25;0.25;;;;;;;;5076103;28;45520;-67
2022/02/15 05:54:04;;;;;;;;;0.25;0.25;;;;;;;;5077205;28;46533;-67
2022/02/15 05:56:30;;;;;;;;;0.00;0.00;;;;;;;;5076401;27;45660;-67
2022/02/15 05:58:55;;;;;;;;;0.00;0.00;;;;;;;;5076440;27;45161;-67
2022/02/15 06:01:20;;;;;;;;;1.50;0.75;;;;;;;;5077078;27;45320;-67
2022/02/15 06:06:29;;;;;;;;;1.00;1.00;;;;;;;;5073976;28;45212;-67
2022/02/15 06:08:54;;;;;;;;;0.00;0.00;;;;;;;;5077231;27;45882;-68
2022/02/15 06:11:20;;;;;;;;;1.25;0.75;;;;;;;;5076016;27;45412;-67
2022/02/15 06:13:45;;;;;;;;;1.00;1.00;;;;;;;;5075731;28;45314;-67
2022/02/15 06:16:10;;;;;;;;;1.50;0.00;;;;;;;;5076545;27;45579;-68
2022/02/15 06:18:35;;;;;;;;;1.25;0.00;;;;;;;;5078635;27;45216;-66
2022/02/15 06:21:01;;;;;;;;;0.00;0.00;;;;;;;;5062561;28;45779;-67
2022/02/15 06:23:27;;;;;;;;;0.75;0.75;;;;;;;;5074237;27;46239;-67
2022/02/15 06:25:52;;;;;;;;;1.00;1.00;;;;;;;;5077136;27;45342;-67
2022/02/15 06:28:17;;;;;;;;;1.00;0.00;;;;;;;;5075638;28;45480;-67
2022/02/15 06:30:43;;;;;;;;;0.00;0.00;;;;;;;;5058785;27;45668;-67
2022/02/15 06:33:08;;;;;;;;;0.00;0.00;;;;;;;;5071252;27;46358;-67
2022/02/15 06:35:33;;;;;;;;;1.00;1.00;;;;;;;;5075265;28;45429;-68
2022/02/15 06:37:58;;;;;;;;;1.00;0.75;;;;;;;;5075543;27;45533;-67
2022/02/15 06:40:23;;;;;;;;;0.75;0.75;;;;;;;;5076249;28;45480;-67
2022/02/15 06:42:49;;;;;;;;;0.25;0.25;;;;;;;;5085051;27;46300;-67
2022/02/15 06:45:15;;;;;;;;;0.75;0.75;;;;;;;;5078351;27;45437;-67
2022/02/15 06:47:41;;;;;;;;;0.50;0.00;;;;;;;;5075415;27;45344;-67
2022/02/15 06:50:06;;;;;;;;;2.00;0.75;;;;;;;;5078708;27;45564;-68
2022/02/15 06:52:32;;;;;;;;;0.75;0.75;;;;;;;;5073040;27;47952;-70
2022/02/15 06:54:57;;;;;;;;;0.00;0.00;;;;;;;;5061087;28;45447;-68
2022/02/15 06:57:22;;;;;;;;;1.00;1.00;;;;;;;;5075965;28;45374;-70
2022/02/15 06:59:49;;;;;;;;;1.00;1.00;;;;;;;;5065830;28;45544;-67
2022/02/15 07:02:14;;;;;;;;;0.00;0.00;;;;;;;;5075167;27;45528;-72
2022/02/15 07:04:40;;;;;;;;;0.00;0.00;;;;;;;;5076618;27;45617;-66
2022/02/15 07:07:05;;;;;;;;;1.00;0.25;;;;;;;;5077514;27;45265;-67
2022/02/15 07:09:31;;;;;;;;;3.00;0.00;;;;;;;;5075597;27;45318;-67
2022/02/15 07:11:56;;;;;;;;;0.00;0.00;;;;;;;;5080300;27;46502;-66
2022/02/15 07:14:21;;;;;;;;;0.00;0.00;;;;;;;;5074174;27;45538;-68
2022/02/15 07:16:47;;;;;;;;;0.50;0.50;;;;;;;;5073776;27;45401;-68
2022/02/15 07:19:12;;;;;;;;;1.25;1.00;;;;;;;;5074373;27;45416;-69
2022/02/15 07:21:37;;;;;;;;;0.75;0.00;;;;;;;;5074398;27;45519;-71
2022/02/15 07:24:03;;;;;;;;;0.00;0.00;;;;;;;;5080307;27;45520;-68
2022/02/15 07:26:29;;;;;;;;;0.50;0.50;;;;;;;;5074967;27;45442;-69
2022/02/15 07:28:54;;;;;;;;;1.00;0.00;;;;;;;;5069900;28;45524;-71
2022/02/15 07:31:19;;;;;;;;;1.25;1.25;;;;;;;;5063310;28;47413;-71
2022/02/15 07:33:44;;;;;;;;;1.00;0.25;;;;;;;;5081814;27;45397;-71
2022/02/15 07:36:10;;;;;;;;;0.75;0.75;;;;;;;;5076161;28;45290;-70
2022/02/15 07:38:35;;;;;;;;;3.25;0.00;;;;;;;;5077650;27;45550;-71
2022/02/15 07:41:00;;;;;;;;;1.00;1.00;;;;;;;;5074738;28;46178;-71
2022/02/15 07:43:25;;;;;;;;;0.00;0.00;;;;;;;;5084588;27;45414;-71
2022/02/15 07:45:51;;;;;;;;;0.00;0.00;;;;;;;;5074727;28;45521;-71
2022/02/15 07:48:16;;;;;;;;;1.00;0.00;;;;;;;;5077350;27;45369;-71
2022/02/15 07:50:42;;;;;;;;;2.00;2.00;;;;;;;;5075109;27;46131;-71
2022/02/15 07:53:07;;;;;;;;;1.00;0.00;;;;;;;;5072787;27;45365;-71
2022/02/15 07:55:33;;;;;;;;;0.00;0.00;;;;;;;;5080017;27;45279;-70
2022/02/15 07:57:58;;;;;;;;;2.00;0.00;;;;;;;;5074223;28;45262;-71
2022/02/15 08:00:24;;;;;;;;;0.00;0.00;;;;;;;;5074900;28;46389;-71
2022/02/15 08:02:49;;;;;;;;;2.50;1.00;;;;;;;;5065546;27;45224;-71
2022/02/15 08:05:15;;;;;;;;;0.00;0.00;;;;;;;;5078514;27;45617;-71
2022/02/15 08:07:44;;;;;;;;;2.00;0.00;;;;;;;;5074689;28;45210;-71
2022/02/15 08:10:09;;;;;;;;;2.00;0.00;;;;;;;;5074758;28;45337;-71
2022/02/15 08:12:36;;;;;;;;;0.00;0.00;;;;;;;;5074495;28;45596;-71
2022/02/15 08:15:01;;;;;;;;;0.00;0.00;;;;;;;;5075232;27;45595;-71
2022/02/15 08:17:26;;;;;;;;;2.00;0.75;;;;;;;;5075359;27;45387;-71
2022/02/15 08:19:51;;;;;;;;;0.50;0.50;;;;;;;;5074463;27;45382;-71
2022/02/15 08:22:18;;;;;;;;;0.50;0.25;;;;;;;;5081315;27;45593;-71
2022/02/15 08:24:44;;;;;;;;;1.00;1.00;;;;;;;;5075601;27;45287;-71
2022/02/15 08:27:10;;;;;;;;;0.50;0.50;;;;;;;;5075863;27;45463;-71
2022/02/15 08:29:35;;;;;;;;;0.00;0.00;;;;;;;;5076984;27;46100;-71
2022/02/15 08:32:00;;;;;;;;;0.00;0.00;;;;;;;;5074550;28;45492;-71
2022/02/15 08:34:26;;;;;;;;;0.00;0.00;;;;;;;;5083000;27;45549;-71
2022/02/15 08:36:51;;;;;;;;;0.00;0.00;;;;;;;;5074252;28;45453;-71
2022/02/15 08:39:16;;;;;;;;;1.75;1.00;;;;;;;;5075497;28;45425;-71
2022/02/15 08:41:42;;;;;;;;;1.00;1.00;;;;;;;;5078795;27;45487;-71
2022/02/15 08:44:07;;;;;;;;;0.50;0.50;;;;;;;;5078958;27;45446;-71
2022/02/15 08:46:32;;;;;;;;;0.00;0.00;;;;;;;;5075193;27;45555;-71
2022/02/15 08:48:58;;;;;;;;;1.00;1.00;;;;;;;;5076834;27;47170;-71
2022/02/15 08:51:23;;;;;;;;;0.00;0.00;;;;;;;;5074685;27;45338;-71
2022/02/15 08:53:50;;;;;;;;;1.00;1.00;;;;;;;;5082523;27;45840;-72
2022/02/15 08:56:16;;;;;;;;;0.00;0.00;;;;;;;;5078817;27;45374;-71
2022/02/15 08:58:41;;;;;;;;;0.50;0.50;;;;;;;;5077175;28;47388;-71
2022/02/15 09:01:06;;;;;;;;;0.00;0.00;;;;;;;;5078381;27;45457;-71
2022/02/15 09:03:32;;;;;;;;;4.00;0.25;;;;;;;;5077537;28;45478;-71
2022/02/15 09:05:59;;;;;;;;;2.50;0.25;;;;;;;;5078422;28;45465;-71
2022/02/15 09:08:25;;;;;;;;;0.00;0.00;;;;;;;;5076938;27;46197;-71
2022/02/15 09:10:50;;;;;;;;;1.00;1.00;;;;;;;;5077193;28;45327;-71
2022/02/15 09:13:15;;;;;;;;;0.25;0.25;;;;;;;;5087255;27;45486;-71
2022/02/15 09:15:40;;;;;;;;;0.00;0.00;;;;;;;;5077685;28;45611;-72
2022/02/15 09:18:05;;;;;;;;;0.00;0.00;;;;;;;;5078311;28;46135;-71
2022/02/15 09:20:31;;;;;;;;;1.50;0.25;;;;;;;;5077305;27;45200;-71
2022/02/15 09:22:56;;;;;;;;;2.00;1.00;;;;;;;;5077031;28;45244;-71
2022/02/15 09:25:22;;;;;;;;;1.00;1.00;;;;;;;;5072705;28;45321;-71
2022/02/15 09:27:47;;;;;;;;;0.25;0.25;;;;;;;;5076992;28;45796;-71
2022/02/15 09:30:12;;;;;;;;;0.00;0.00;;;;;;;;5062132;28;45388;-71
2022/02/15 09:32:37;;;;;;;;;0.25;0.25;;;;;;;;5080567;27;45513;-71
2022/02/15 09:35:03;;;;;;;;;2.00;1.00;;;;;;;;5082608;27;45480;-71
2022/02/15 09:37:28;;;;;;;;;0.25;0.00;;;;;;;;5076603;28;46523;-71
2022/02/15 09:39:56;;;;;;;;;0.00;0.00;;;;;;;;5077011;28;45393;-71
2022/02/15 09:42:22;;;;;;;;;0.00;0.00;;;;;;;;5076568;28;45365;-72
2022/02/15 09:44:47;;;;;;;;;0.50;0.50;;;;;;;;5077441;28;45394;-70
2022/02/15 09:47:13;;;;;;;;;1.25;1.00;;;;;;;;5077506;27;46859;-70
2022/02/15 09:49:51;;;;;;;;;3.00;0.50;;;;;;;;5079090;27;45355;-70
2022/02/15 09:52:23;;;;;;;;;0.00;0.00;;;;;;;;5087569;27;45627;-70
2022/02/15 09:54:50;;;;;;;;;0.00;0.00;;;;;;;;5060410;28;45509;-70
2022/02/15 09:57:17;;;;;;;;;0.25;0.25;;;;;;;;5083138;27;46103;-71
2022/02/15 09:59:42;;;;;;;;;0.00;0.00;;;;;;;;5076582;28;45303;-70
2022/02/15 10:02:12;;;;;;;;;1.00;1.00;;;;;;;;5076529;28;45359;-70
2022/02/15 10:04:37;;;;;;;;;0.00;0.00;;;;;;;;5076552;28;45632;-70
2022/02/15 10:07:03;;;;;;;;;0.00;0.00;;;;;;;;5076213;27;46188;-70
2022/02/15 10:09:29;;;;;;;;;0.75;0.00;;;;;;;;5076753;28;45336;-70
2022/02/15 10:12:20;;;;;;;;;0.25;0.00;;;;;;;;5077130;27;45398;-70
2022/02/15 10:14:52;;;;;;;;;0.00;0.00;;;;;;;;5075175;28;45327;-70
2022/02/15 10:17:18;;;;;;;;;1.00;1.00;;;;;;;;5076112;27;47102;-70
2022/02/15 10:19:44;;;;;;;;;1.00;1.00;;;;;;;;5072933;28;45509;-70
2022/02/15 10:22:10;;;;;;;;;1.75;0.00;;;;;;;;5063250;28;45333;-70
2022/02/15 10:24:36;;;;;;;;;0.00;0.00;;;;;;;;5075784;28;45492;-70
2022/02/15 10:27:10;;;;;;;;;0.00;0.00;;;;;;;;5076660;28;47358;-70
2022/02/15 10:29:36;;;;;;;;;0.00;0.00;;;;;;;;5065280;27;45414;-70
2022/02/15 10:32:05;;;;;;;;;0.00;0.00;;;;;;;;5070133;28;45660;-70
2022/02/15 10:34:31;;;;;;;;;0.25;0.25;;;;;;;;5076193;27;45437;-70
2022/02/15 10:37:01;;;;;;;;;0.00;0.00;;;;;;;;5076320;28;45590;-70
2022/02/15 10:39:45;;;;;;;;;0.50;0.50;;;;;;;;5076820;28;45353;-70
2022/02/15 10:42:10;;;;;;;;;1.75;1.00;;;;;;;;5085453;27;45367;-70
2022/02/15 10:44:47;;;;;;;;;1.00;1.00;;;;;;;;5077462;27;45480;-70
2022/02/15 10:47:12;;;;;;;;;1.50;1.00;;;;;;;;5075568;27;46680;-70
2022/02/15 10:49:38;;;;;;;;;1.00;0.00;;;;;;;;5077537;27;45363;-70
2022/02/15 10:52:03;;;;;;;;;0.25;0.00;;;;;;;;5077942;27;45493;-70
2022/02/15 10:54:28;;;;;;;;;2.00;0.00;;;;;;;;5076248;27;45213;-70
2022/02/15 10:56:53;;;;;;;;;2.75;0.75;;;;;;;;5076335;28;47040;-70
2022/02/15 10:59:20;;;;;;;;;1.25;1.25;;;;;;;;5076076;28;45510;-70
2022/02/15 11:01:46;;;;;;;;;0.00;0.00;;;;;;;;5074535;28;45415;-70
2022/02/15 11:04:13;;;;;;;;;0.00;0.00;;;;;;;;5075703;27;45597;-70
2022/02/15 11:06:39;;;;;;;;;1.00;1.00;;;;;;;;5058683;28;46197;-70
2022/02/15 11:09:06;;;;;;;;;1.25;1.25;;;;;;;;5076103;27;45379;-70
2022/02/15 11:12:03;;;;;;;;;0.00;0.00;;;;;;;;5078503;27;45368;-70
2022/02/15 11:14:28;;;;;;;;;0.75;0.00;;;;;;;;5015054;28;45432;-71
2022/02/15 11:16:54;;;;;;;;;0.25;0.25;;;;;;;;5012390;28;45417;-71
2022/02/15 11:19:19;;;;;;;;;1.00;1.00;;;;;;;;5012459;28;45515;-71
2022/02/15 11:21:53;;;;;;;;;0.75;0.00;;;;;;;;5013566;28;45382;-71
2022/02/15 11:24:19;;;;;;;;;1.00;1.00;;;;;;;;5009653;28;45632;-71
2022/02/15 11:26:44;;;;;;;;;1.25;0.25;;;;;;;;5013256;28;46042;-71
2022/02/15 11:29:20;;;;;;;;;1.50;0.75;;;;;;;;5005628;28;45430;-72
2022/02/15 11:31:45;;;;;;;;;0.25;0.25;;;;;;;;5005455;28;45448;-71
2022/02/15 11:34:11;;;;;;;;;1.00;1.00;;;;;;;;5013024;28;45340;-71
2022/02/15 11:36:49;;;;;;;;;4.25;0.00;;;;;;;;5014445;28;45455;-71
2022/02/15 11:39:21;;;;;;;;;0.00;0.00;;;;;;;;5009127;28;45855;-71
2022/02/15 11:41:49;;;;;;;;;2.25;0.00;;;;;;;;5013442;28;45417;-71
2022/02/15 11:44:14;;;;;;;;;0.00;0.00;;;;;;;;5012875;28;45472;-71
2022/02/15 11:46:43;;;;;;;;;1.00;1.00;;;;;;;;5008655;28;45698;-71
2022/02/15 11:49:13;;;;;;;;;0.00;0.00;;;;;;;;5016565;28;47371;-71
2022/02/15 11:51:39;;;;;;;;;1.00;0.00;;;;;;;;5073197;28;45311;-71
2022/02/15 11:54:09;;;;;;;;;2.00;0.25;;;;;;;;5073934;28;45438;-71
2022/02/15 11:56:35;;;;;;;;;1.00;1.00;;;;;;;;5083205;27;46533;-71
2022/02/15 11:59:01;;;;;;;;;0.00;0.00;;;;;;;;5080623;27;45517;-72
2022/02/15 12:01:30;;;;;;;;;2.00;1.00;;;;;;;;5075668;27;45409;-71
2022/02/15 12:03:56;;;;;;;;;1.00;0.00;;;;;;;;5075081;28;45429;-71
2022/02/15 12:06:22;;;;;;;;;2.75;1.00;;;;;;;;5074796;28;45339;-72
2022/02/15 12:08:55;;;;;;;;;1.00;0.00;;;;;;;;5074927;27;45486;-71
2022/02/15 12:11:33;;;;;;;;;1.00;0.00;;;;;;;;5076757;27;45445;-71
2022/02/15 12:14:28;;;;;;;;;2.50;0.50;;;;;;;;5080741;27;45449;-71
2022/02/15 12:16:54;;;;;;;;;0.00;0.00;;;;;;;;5074998;27;46196;-71
2022/02/15 12:19:29;;;;;;;;;0.75;0.75;;;;;;;;5073671;28;45408;-71
2022/02/15 12:21:55;;;;;;;;;1.00;1.00;;;;;;;;5059903;27;45639;-71
2022/02/15 12:24:21;;;;;;;;;1.00;1.00;;;;;;;;5075261;27;45594;-72
2022/02/15 12:26:46;;;;;;;;;1.00;0.25;;;;;;;;5074677;28;47259;-71
2022/02/15 12:29:12;;;;;;;;;1.00;0.00;;;;;;;;5066406;28;45256;-71
2022/02/15 12:31:37;;;;;;;;;0.50;0.25;;;;;;;;5067534;28;45224;-71
2022/02/15 12:34:04;;;;;;;;;0.75;0.75;;;;;;;;5078815;27;45516;-72
2022/02/15 12:36:30;;;;;;;;;1.00;0.00;;;;;;;;5078323;27;46194;-72
2022/02/15 12:38:55;;;;;;;;;0.00;0.00;;;;;;;;5091681;27;45398;-71
2022/02/15 12:41:22;;;;;;;;;1.50;0.75;;;;;;;;5081469;27;45489;-72
2022/02/15 12:43:54;;;;;;;;;0.00;0.00;;;;;;;;5077447;27;45692;-71
2022/02/15 12:46:19;;;;;;;;;0.75;0.00;;;;;;;;5077535;27;47259;-71
2022/02/15 12:48:45;;;;;;;;;2.00;0.25;;;;;;;;5077406;28;45311;-71
2022/02/15 12:51:10;;;;;;;;;2.00;0.00;;;;;;;;5078605;28;45422;-71
2022/02/15 12:53:36;;;;;;;;;1.00;1.00;;;;;;;;5077366;27;45467;-71
2022/02/15 12:56:05;;;;;;;;;0.50;0.50;;;;;;;;5077474;27;46958;-71
2022/02/15 12:58:31;;;;;;;;;0.00;0.00;;;;;;;;5077579;28;45570;-71
2022/02/15 13:00:58;;;;;;;;;1.25;0.00;;;;;;;;5077451;28;45387;-71
2022/02/15 13:03:23;;;;;;;;;0.50;0.50;;;;;;;;5077901;28;45526;-71
2022/02/15 13:05:49;;;;;;;;;1.25;1.00;;;;;;;;5088671;27;45478;-71
2022/02/15 13:08:17;;;;;;;;;0.25;0.25;;;;;;;;5081688;27;45320;-71
2022/02/15 13:10:53;;;;;;;;;0.00;0.00;;;;;;;;5077343;28;45438;-71
2022/02/15 13:13:23;;;;;;;;;1.25;0.00;;;;;;;;5077035;28;45375;-70
2022/02/15 13:15:57;;;;;;;;;1.50;0.00;;;;;;;;5064328;27;46140;-70
2022/02/15 13:18:23;;;;;;;;;2.75;0.75;;;;;;;;5078776;27;45382;-70
2022/02/15 13:20:52;;;;;;;;;0.00;0.00;;;;;;;;5077531;27;45502;-70
2022/02/15 13:23:17;;;;;;;;;2.00;1.00;;;;;;;;5078131;27;45637;-69
2022/02/15 13:25:42;;;;;;;;;0.25;0.25;;;;;;;;5077377;28;46065;-70
2022/02/15 13:28:08;;;;;;;;;0.25;0.25;;;;;;;;5079758;27;45508;-70
2022/02/15 13:30:33;;;;;;;;;0.00;0.00;;;;;;;;5079458;27;45266;-69
2022/02/15 13:32:58;;;;;;;;;0.25;0.25;;;;;;;;5078462;28;45324;-71
2022/02/15 13:35:24;;;;;;;;;1.00;0.00;;;;;;;;5077026;27;45996;-70
2022/02/15 13:37:53;;;;;;;;;1.25;0.00;;;;;;;;5076024;27;45192;-70
2022/02/15 13:40:18;;;;;;;;;0.00;0.00;;;;;;;;5076855;28;45501;-70
2022/02/15 13:42:43;;;;;;;;;0.00;0.00;;;;;;;;5076524;28;45514;-70
2022/02/15 13:45:09;;;;;;;;;1.00;0.00;;;;;;;;5077795;28;46590;-70
2022/02/15 13:47:34;;;;;;;;;1.00;1.00;;;;;;;;5076955;27;45483;-70
2022/02/15 13:50:00;;;;;;;;;0.00;0.00;;;;;;;;5074859;28;45504;-70
2022/02/15 13:52:25;;;;;;;;;0.00;0.00;;;;;;;;5076793;28;45732;-69
2022/02/15 13:54:50;;;;;;;;;2.00;0.00;;;;;;;;5076771;28;46110;-70
2022/02/15 13:57:17;;;;;;;;;1.00;1.00;;;;;;;;5077687;28;45335;-70
2022/02/15 13:59:42;;;;;;;;;0.00;0.00;;;;;;;;5076259;27;45376;-70
2022/02/15 14:02:08;;;;;;;;;0.00;0.00;;;;;;;;5080278;27;45436;-70
2022/02/15 14:04:34;;;;;;;;;1.00;0.25;;;;;;;;5082188;27;46958;-70
2022/02/15 14:07:00;;;;;;;;;0.00;0.00;;;;;;;;5076371;28;45500;-70
2022/02/15 14:09:26;;;;;;;;;2.00;1.00;;;;;;;;5076605;28;45378;-70
2022/02/15 14:11:51;;;;;;;;;0.00;0.00;;;;;;;;5076883;27;45447;-70
2022/02/15 14:14:16;;;;;;;;;1.00;0.00;;;;;;;;5076033;27;46310;-69
2022/02/15 14:16:41;;;;;;;;;1.00;0.00;;;;;;;;5081406;27;45281;-69
2022/02/15 14:19:08;;;;;;;;;0.00;0.00;;;;;;;;5081417;27;45335;-69
2022/02/15 14:21:37;;;;;;;;;3.25;0.00;;;;;;;;5076290;28;45425;-70
2022/02/15 14:24:02;;;;;;;;;1.75;1.00;;;;;;;;5077116;27;46914;-70
2022/02/15 14:26:30;;;;;;;;;0.00;0.00;;;;;;;;5075832;28;45532;-70
2022/02/15 14:28:55;;;;;;;;;1.00;0.00;;;;;;;;5070622;28;45626;-70
2022/02/15 14:31:20;;;;;;;;;2.00;1.00;;;;;;;;5064798;28;45552;-70
2022/02/15 14:33:46;;;;;;;;;0.25;0.00;;;;;;;;5086924;27;45447;-69
2022/02/15 14:36:11;;;;;;;;;1.00;0.00;;;;;;;;5077049;28;45315;-70
2022/02/15 14:38:36;;;;;;;;;0.50;0.00;;;;;;;;5076280;28;45237;-70
2022/02/15 14:41:01;;;;;;;;;0.00;0.00;;;;;;;;5075952;28;45821;-69
2022/02/15 14:43:27;;;;;;;;;0.25;0.00;;;;;;;;5075593;28;46336;-70